Forest Heights, Oregon
Current Conditions -  °F | °C
As of 9:53 AM on Sunday 21 Dec 2014 (Local Time) from KHIO Reporting Station
Light Rain Light Rain  
Wind Chill: 53°   Ceiling: 3600
Heat Index: 53°   Visibility: 10mi
Dew Point: 50°   Wind: 5mph
Humidity: 89%   Direction: 210°SSW
Pressure: 30.05"   Gusts: NA
Location:  45.5526°N, 122.821°W
Report Text: KHIO 211753Z 21004KT 10SM -RA OVC036 12/10 A3005 RMK AO2 RAB51 PRESRR SLP175 P0000 60000 T01170100 10133 20100 53043
Loading
Personal Weather Stations






























Interactive Weather Map New forecast layout! Learn more

10-Day Weather Forecast

Advertisements
Track Severe Weather on mobile